Terminal Aerodrome Forecast
Issued by NWS Sterling, VA

Current Version | Previous Version | Text Only | Print | Product List | Glossary Off
Versions: 1 2 3 4 5 6 7 8 9 10 11 12 13 14 15 16 17 18 19 20 21 22 23 24

565
FTUS41 KLWX 171120
TAFIAD
TAF
KIAD 171120Z 1712/1818 30006KT P6SM FEW050
     FM171500 31010KT P6SM FEW250
     FM180000 VRB03KT P6SM SCT150
     FM180800 18006KT P6SM BKN150
     FM181200 19010G18KT P6SM BKN130=

USA.gov is the U.S. government's official web portal to all federal, state and local government web resources and services.